createdAt,value
2018-04-30T00:01:28.486Z,12.20
2018-04-30T00:03:29.479Z,12.20
2018-04-30T00:05:30.494Z,12.30
2018-04-30T00:07:31.494Z,12.40
2018-04-30T00:09:33.864Z,12.40
2018-04-30T00:11:34.914Z,12.40
2018-04-30T00:13:36.133Z,12.40
2018-04-30T00:15:37.132Z,12.30
2018-04-30T00:17:38.230Z,12.30
2018-04-30T00:19:39.835Z,12.20
2018-04-30T00:21:41.068Z,12.20
2018-04-30T00:23:42.336Z,12.30
2018-04-30T00:25:43.858Z,12.20
2018-04-30T00:27:44.875Z,12.20
2018-04-30T00:29:45.875Z,12.30
2018-04-30T00:31:47.206Z,12.20
2018-04-30T00:33:48.663Z,12.20
2018-04-30T00:35:50.029Z,12.20
2018-04-30T00:37:51.159Z,12.20
2018-04-30T00:39:52.286Z,12.10
2018-04-30T00:41:53.298Z,12.00
2018-04-30T00:43:54.465Z,12.10
2018-04-30T00:45:55.654Z,12.10
2018-04-30T00:47:57.009Z,12.00
2018-04-30T00:49:58.399Z,12.00
2018-04-30T00:51:59.439Z,12.00
2018-04-30T00:54:00.826Z,11.90
2018-04-30T00:56:02.262Z,12.10
2018-04-30T00:58:03.239Z,12.10
2018-04-30T01:00:04.615Z,12.00
2018-04-30T01:02:05.603Z,12.00
2018-04-30T01:04:06.958Z,12.10
2018-04-30T01:06:08.305Z,12.10
2018-04-30T01:08:09.662Z,12.10
2018-04-30T01:10:10.644Z,12.10
2018-04-30T01:12:12.462Z,11.90
2018-04-30T01:14:13.457Z,11.90
2018-04-30T01:16:14.418Z,11.90
2018-04-30T01:18:15.755Z,12.00
2018-04-30T01:20:17.139Z,12.00
2018-04-30T01:22:18.109Z,12.00
2018-04-30T01:24:26.155Z,11.90
2018-04-30T01:26:27.146Z,12.00
2018-04-30T01:28:28.123Z,12.00
2018-04-30T01:30:29.551Z,12.00
2018-04-30T01:32:31.366Z,12.00
2018-04-30T01:34:32.331Z,12.00
2018-04-30T01:36:33.658Z,11.90
2018-04-30T01:38:34.637Z,11.90
2018-04-30T01:40:35.615Z,12.00
2018-04-30T01:42:36.598Z,12.00
2018-04-30T01:44:37.611Z,12.00
2018-04-30T01:46:38.949Z,12.00
2018-04-30T01:48:40.147Z,12.00
2018-04-30T01:50:48.123Z,12.00
2018-04-30T01:52:49.099Z,11.90
2018-04-30T01:54:50.062Z,11.90
2018-04-30T01:56:51.541Z,12.00
2018-04-30T01:58:52.499Z,12.00
2018-04-30T02:00:53.466Z,11.80
2018-04-30T02:02:54.454Z,11.80
2018-04-30T02:04:55.434Z,11.80
2018-04-30T02:06:56.427Z,11.90
2018-04-30T02:08:57.394Z,11.70
2018-04-30T02:10:58.374Z,11.80
2018-04-30T02:12:59.375Z,11.70
2018-04-30T02:15:00.389Z,11.80
2018-04-30T02:17:01.364Z,11.80
2018-04-30T02:19:02.823Z,11.70
2018-04-30T02:21:03.805Z,11.70
2018-04-30T02:23:05.418Z,11.70
2018-04-30T02:25:06.443Z,11.70
2018-04-30T02:27:07.419Z,11.70
2018-04-30T02:29:08.420Z,11.80
2018-04-30T02:31:09.430Z,11.60
2018-04-30T02:33:10.790Z,11.60
2018-04-30T02:35:11.771Z,11.60
2018-04-30T02:37:12.849Z,11.60
2018-04-30T02:39:14.231Z,11.60
2018-04-30T02:41:15.232Z,11.60
2018-04-30T02:43:16.594Z,11.60
2018-04-30T02:45:17.575Z,11.50
2018-04-30T02:47:18.578Z,11.60
2018-04-30T02:49:19.650Z,11.70
2018-04-30T02:51:20.631Z,11.60
2018-04-30T02:53:21.615Z,11.50
2018-04-30T02:55:22.586Z,11.40
2018-04-30T02:57:23.929Z,11.40
2018-04-30T02:59:25.293Z,11.50
2018-04-30T03:01:26.286Z,11.50
2018-04-30T03:03:27.256Z,11.60
2018-04-30T03:05:28.223Z,11.60
2018-04-30T03:07:29.219Z,11.70
2018-04-30T03:09:30.202Z,11.60
2018-04-30T03:11:31.206Z,11.70
2018-04-30T03:13:39.231Z,11.60
2018-04-30T03:15:40.206Z,11.60
2018-04-30T03:17:41.566Z,11.60
2018-04-30T03:19:42.562Z,11.60
2018-04-30T03:21:43.545Z,11.70
2018-04-30T03:23:44.572Z,11.60
2018-04-30T03:25:45.566Z,11.70
2018-04-30T03:27:46.544Z,11.60
2018-04-30T03:29:48.026Z,11.60
2018-04-30T03:31:49.031Z,11.60
2018-04-30T03:33:50.030Z,11.60
2018-04-30T03:35:51.017Z,11.70
2018-04-30T03:37:51.987Z,11.70
2018-04-30T03:39:52.967Z,11.70
2018-04-30T03:41:54.077Z,11.70
2018-04-30T03:43:55.060Z,11.70
2018-04-30T03:45:56.031Z,11.60
2018-04-30T03:47:57.022Z,11.70
2018-04-30T03:49:58.036Z,11.70
2018-04-30T03:51:59.382Z,11.70
2018-04-30T03:54:00.368Z,11.70
2018-04-30T03:56:01.338Z,11.70
2018-04-30T03:58:02.670Z,11.70
2018-04-30T04:00:03.659Z,11.70
2018-04-30T04:02:17.095Z,11.70
2018-04-30T04:04:30.529Z,11.70
2018-04-30T04:06:36.482Z,11.70
2018-04-30T04:08:37.435Z,11.60
2018-04-30T04:10:38.409Z,11.70
2018-04-30T04:12:39.442Z,11.80
2018-04-30T04:14:40.375Z,11.70
2018-04-30T04:16:41.767Z,11.80
2018-04-30T04:18:42.768Z,11.80
2018-04-30T04:20:43.782Z,11.80
2018-04-30T04:22:45.130Z,11.70
2018-04-30T04:24:46.119Z,11.70
2018-04-30T04:26:47.104Z,11.70
2018-04-30T04:28:48.082Z,11.80
2018-04-30T04:30:49.071Z,11.60
2018-04-30T04:32:50.399Z,11.80
2018-04-30T04:34:51.736Z,11.70
2018-04-30T04:36:53.369Z,11.90
2018-04-30T04:38:54.335Z,11.90
2018-04-30T04:40:55.690Z,11.80
2018-04-30T04:42:56.674Z,11.80
2018-04-30T04:44:57.639Z,11.80
2018-04-30T04:46:58.995Z,12.00
2018-04-30T04:48:59.986Z,12.00
2018-04-30T04:51:00.950Z,11.90
2018-04-30T04:53:02.296Z,11.90
2018-04-30T04:55:03.650Z,11.80
2018-04-30T04:57:04.644Z,11.80
2018-04-30T04:59:05.645Z,11.80
2018-04-30T05:01:06.625Z,11.90
2018-04-30T05:03:07.610Z,11.90
2018-04-30T05:05:08.578Z,12.00
2018-04-30T05:07:09.830Z,12.00
2018-04-30T05:09:10.831Z,12.00
2018-04-30T05:11:11.810Z,12.10
2018-04-30T05:13:12.799Z,12.10
2018-04-30T05:15:13.777Z,12.10
2018-04-30T05:17:14.770Z,12.20
2018-04-30T05:19:15.761Z,12.10
2018-04-30T05:21:17.118Z,12.00
2018-04-30T05:23:18.143Z,12.00
2018-04-30T05:25:19.511Z,12.10
2018-04-30T05:27:20.475Z,12.20
2018-04-30T05:31:29.246Z,12.10
2018-04-30T05:33:30.657Z,12.30
2018-04-30T05:35:31.660Z,12.30
2018-04-30T05:37:32.629Z,12.40
2018-04-30T05:39:33.643Z,12.60
2018-04-30T05:41:34.636Z,12.70
2018-04-30T05:43:35.994Z,12.60
2018-04-30T05:45:36.986Z,12.60
2018-04-30T05:47:37.949Z,12.70
2018-04-30T05:49:39.300Z,12.90
2018-04-30T05:51:40.667Z,13.00
2018-04-30T05:53:41.639Z,13.00
2018-04-30T05:55:42.615Z,13.00
2018-04-30T05:57:43.955Z,13.20
2018-04-30T05:59:45.296Z,13.30
2018-04-30T06:01:46.441Z,13.30
2018-04-30T06:03:47.788Z,13.50
2018-04-30T06:05:48.790Z,13.50
2018-04-30T06:07:49.970Z,13.50
2018-04-30T06:09:50.949Z,13.70
2018-04-30T06:11:52.743Z,13.70
2018-04-30T06:13:54.087Z,13.80
2018-04-30T06:15:55.442Z,13.90
2018-04-30T06:17:56.405Z,13.90
2018-04-30T06:19:57.370Z,13.90
2018-04-30T06:21:58.350Z,13.80
2018-04-30T06:23:59.388Z,13.70
2018-04-30T06:26:00.391Z,13.80
2018-04-30T06:28:01.369Z,13.80
2018-04-30T06:30:02.518Z,13.80
2018-04-30T06:32:03.497Z,13.80
2018-04-30T06:34:04.466Z,13.80
2018-04-30T06:36:05.491Z,13.80
2018-04-30T06:38:06.499Z,13.90
2018-04-30T06:40:07.489Z,13.90
2018-04-30T06:42:08.476Z,14.00
2018-04-30T06:44:09.437Z,13.90
2018-04-30T06:46:10.742Z,13.90
2018-04-30T06:48:11.719Z,13.80
2018-04-30T06:50:12.699Z,13.90
2018-04-30T06:52:13.687Z,13.80
2018-04-30T06:54:14.657Z,14.00
2018-04-30T06:56:15.643Z,14.10
2018-04-30T06:58:16.982Z,14.20
2018-04-30T07:00:18.395Z,14.30
2018-04-30T07:02:19.689Z,14.30
2018-04-30T07:04:20.662Z,14.30
2018-04-30T07:06:21.649Z,14.30
2018-04-30T07:08:22.673Z,14.50
2018-04-30T07:10:24.038Z,14.50
2018-04-30T07:12:25.035Z,14.50
2018-04-30T07:14:26.034Z,14.60
2018-04-30T07:16:27.035Z,14.80
2018-04-30T07:18:28.407Z,15.40
2018-04-30T07:20:29.458Z,15.40
2018-04-30T07:22:30.454Z,15.70
2018-04-30T07:24:31.462Z,15.70
2018-04-30T07:26:32.431Z,15.70
2018-04-30T07:28:33.447Z,15.80
2018-04-30T07:30:35.052Z,15.80
2018-04-30T07:32:36.041Z,15.80
2018-04-30T07:34:37.031Z,16.10
2018-04-30T07:36:38.024Z,16.10
2018-04-30T07:38:39.001Z,15.90
2018-04-30T07:40:39.982Z,15.90
2018-04-30T07:42:40.950Z,15.90
2018-04-30T07:44:41.946Z,16.00
2018-04-30T07:46:42.939Z,16.20
2018-04-30T07:48:44.244Z,16.30
2018-04-30T07:50:45.289Z,16.20
2018-04-30T07:52:46.288Z,16.10
2018-04-30T07:54:47.916Z,16.50
2018-04-30T07:56:48.898Z,16.30
2018-04-30T07:58:49.842Z,16.30
2018-04-30T08:00:51.503Z,16.10
2018-04-30T08:02:52.461Z,16.10
2018-04-30T08:04:53.423Z,16.10
2018-04-30T08:06:55.004Z,16.10
2018-04-30T08:08:55.997Z,16.10
2018-04-30T08:10:57.415Z,16.00
2018-04-30T08:12:58.409Z,16.00
2018-04-30T08:14:59.836Z,16.00
2018-04-30T08:17:00.835Z,16.20
2018-04-30T08:19:01.817Z,16.30
2018-04-30T08:21:02.797Z,16.20
2018-04-30T08:23:03.812Z,16.40
2018-04-30T08:25:04.838Z,16.40
2018-04-30T08:27:05.843Z,16.40
2018-04-30T08:29:07.273Z,16.60
2018-04-30T08:31:08.638Z,16.60
2018-04-30T08:33:10.914Z,16.60
2018-04-30T08:35:11.907Z,16.60
2018-04-30T08:37:12.918Z,16.70
2018-04-30T08:39:14.014Z,16.50
2018-04-30T08:41:15.453Z,16.50
2018-04-30T08:43:16.801Z,16.70
2018-04-30T08:45:18.121Z,16.60
2018-04-30T08:47:19.490Z,16.50
2018-04-30T08:49:20.439Z,16.50
2018-04-30T08:51:21.501Z,16.70
2018-04-30T08:53:22.986Z,16.80
2018-04-30T08:55:23.910Z,16.80
2018-04-30T08:57:24.866Z,17.00
2018-04-30T08:59:26.207Z,16.90
2018-04-30T09:01:27.510Z,16.80
2018-04-30T09:03:28.470Z,16.90
2018-04-30T09:05:29.422Z,16.80
2018-04-30T09:07:30.743Z,16.80
2018-04-30T09:09:31.680Z,16.80
2018-04-30T09:11:32.637Z,16.80
2018-04-30T09:13:33.576Z,16.80
2018-04-30T09:15:34.682Z,16.80
2018-04-30T09:17:35.630Z,16.80
2018-04-30T09:19:36.954Z,16.90
2018-04-30T09:21:37.901Z,16.90
2018-04-30T09:23:39.230Z,16.90
2018-04-30T09:25:40.814Z,16.90
2018-04-30T09:27:41.758Z,16.90
2018-04-30T09:29:42.707Z,16.90
2018-04-30T09:31:43.642Z,16.90
2018-04-30T09:33:44.589Z,17.10
2018-04-30T09:35:45.550Z,17.00
2018-04-30T09:37:46.494Z,17.10
2018-04-30T09:39:47.441Z,17.10
2018-04-30T09:41:48.777Z,17.10
2018-04-30T09:43:50.122Z,17.00
2018-04-30T09:45:51.026Z,17.00
2018-04-30T09:47:51.975Z,17.10
2018-04-30T09:49:52.922Z,17.20
2018-04-30T09:51:54.223Z,17.20
2018-04-30T09:53:55.330Z,17.30
2018-04-30T09:55:56.277Z,17.20
2018-04-30T09:57:57.351Z,17.10
2018-04-30T09:59:58.179Z,17.00
2018-04-30T10:01:59.128Z,17.10
2018-04-30T10:04:00.085Z,17.20
2018-04-30T10:06:01.064Z,17.20
2018-04-30T10:08:02.010Z,17.20
2018-04-30T10:10:02.952Z,17.30
2018-04-30T10:12:03.918Z,17.20
2018-04-30T10:14:05.232Z,17.10
2018-04-30T10:16:06.178Z,17.10
2018-04-30T10:18:07.506Z,17.00
2018-04-30T10:20:08.446Z,17.00
2018-04-30T10:22:09.407Z,16.80
2018-04-30T10:24:10.726Z,16.80
2018-04-30T10:26:11.673Z,16.80
2018-04-30T10:28:13.016Z,16.70
2018-04-30T10:30:14.334Z,16.70
2018-04-30T10:32:15.286Z,16.70
2018-04-30T10:34:16.790Z,16.50
2018-04-30T10:36:17.749Z,16.50
2018-04-30T10:38:18.713Z,16.70
2018-04-30T10:40:20.043Z,16.60
2018-04-30T10:42:21.577Z,16.70
2018-04-30T10:44:22.534Z,16.70
2018-04-30T10:46:23.883Z,16.60
2018-04-30T10:48:25.208Z,16.50
2018-04-30T10:50:26.155Z,16.50
2018-04-30T10:52:27.477Z,16.30
2018-04-30T10:54:28.423Z,16.30
2018-04-30T10:56:29.357Z,16.20
2018-04-30T10:58:30.385Z,16.10
2018-04-30T11:00:31.326Z,16.00
2018-04-30T11:02:32.357Z,15.90
2018-04-30T11:04:33.599Z,15.60
2018-04-30T11:06:34.546Z,15.60
2018-04-30T11:08:35.865Z,15.60
2018-04-30T11:10:36.831Z,15.60
2018-04-30T11:12:38.146Z,15.50
2018-04-30T11:14:39.095Z,15.50
2018-04-30T11:16:40.414Z,15.60
2018-04-30T11:18:41.366Z,15.60
2018-04-30T11:20:42.314Z,15.60
2018-04-30T11:22:43.680Z,15.60
2018-04-30T11:24:44.624Z,15.70
2018-04-30T11:26:45.583Z,15.70
2018-04-30T11:28:46.547Z,16.00
2018-04-30T11:30:47.481Z,15.90
2018-04-30T11:32:48.433Z,15.90
2018-04-30T11:34:49.403Z,15.90
2018-04-30T11:36:50.363Z,16.10
2018-04-30T11:38:51.313Z,16.10
2018-04-30T11:40:52.650Z,16.30
2018-04-30T11:42:53.607Z,16.30
2018-04-30T11:44:54.901Z,15.90
2018-04-30T11:46:56.225Z,15.90
2018-04-30T11:48:57.198Z,15.90
2018-04-30T11:50:58.142Z,15.90
2018-04-30T11:52:59.079Z,15.70
2018-04-30T11:55:00.016Z,15.60
2018-04-30T11:57:01.334Z,15.40
2018-04-30T11:59:02.286Z,15.50
2018-04-30T12:01:03.246Z,15.40
2018-04-30T12:03:04.562Z,15.30
2018-04-30T12:05:05.556Z,15.30
2018-04-30T12:07:06.498Z,15.20
2018-04-30T12:09:07.443Z,15.20
2018-04-30T12:11:08.468Z,15.00
2018-04-30T12:13:09.337Z,14.80
2018-04-30T12:15:10.269Z,14.70
2018-04-30T12:17:11.215Z,14.80
2018-04-30T12:19:12.719Z,14.70
2018-04-30T12:21:13.732Z,14.70
2018-04-30T12:23:14.718Z,14.80
2018-04-30T12:25:15.694Z,14.80
2018-04-30T12:27:16.669Z,14.80
2018-04-30T12:29:17.622Z,14.80
2018-04-30T12:31:18.575Z,14.80
2018-04-30T12:33:19.898Z,14.80
2018-04-30T12:35:21.228Z,14.90
2018-04-30T12:37:22.186Z,14.90
2018-04-30T12:39:23.514Z,14.80
2018-04-30T12:41:24.458Z,14.80
2018-04-30T12:43:26.074Z,14.60
2018-04-30T12:45:27.027Z,14.60
2018-04-30T12:47:27.976Z,14.60
2018-04-30T12:49:29.376Z,14.40
2018-04-30T12:51:30.290Z,14.40
2018-04-30T12:53:31.235Z,14.40
2018-04-30T12:55:32.186Z,14.30
2018-04-30T12:57:33.572Z,14.20
2018-04-30T12:59:34.902Z,14.10
2018-04-30T13:01:35.929Z,14.10
2018-04-30T13:03:36.914Z,13.90
2018-04-30T13:05:37.919Z,13.70
2018-04-30T13:07:39.271Z,13.30
2018-04-30T13:09:40.742Z,13.10
2018-04-30T13:11:41.786Z,13.10
2018-04-30T13:13:49.120Z,13.00
2018-04-30T13:15:50.528Z,12.90
2018-04-30T13:17:51.509Z,12.90
2018-04-30T13:19:53.290Z,13.00
2018-04-30T13:21:54.362Z,13.00
2018-04-30T13:23:55.522Z,13.10
2018-04-30T13:25:56.732Z,13.10
2018-04-30T13:27:57.690Z,13.10
2018-04-30T13:29:59.461Z,13.10
2018-04-30T13:32:00.463Z,13.10
2018-04-30T13:34:01.401Z,13.10
2018-04-30T13:36:02.913Z,13.10
2018-04-30T13:38:03.998Z,13.10
2018-04-30T13:40:05.409Z,13.10
2018-04-30T13:42:06.425Z,13.10
2018-04-30T13:44:07.453Z,13.10
2018-04-30T13:46:08.438Z,13.10
2018-04-30T13:48:09.460Z,13.10
2018-04-30T13:50:10.470Z,13.00
2018-04-30T13:52:11.434Z,13.10
2018-04-30T13:54:12.395Z,13.00
2018-04-30T13:56:13.520Z,13.00
2018-04-30T13:58:14.500Z,13.10
2018-04-30T14:00:15.450Z,13.10
2018-04-30T14:02:16.410Z,13.10
2018-04-30T14:04:17.345Z,13.10
2018-04-30T14:06:18.306Z,13.20
2018-04-30T14:08:19.282Z,13.20
2018-04-30T14:10:20.279Z,13.20
2018-04-30T14:12:21.235Z,13.30
2018-04-30T14:14:22.683Z,13.70
2018-04-30T14:16:23.677Z,13.70
2018-04-30T14:18:24.626Z,13.80
2018-04-30T14:20:25.987Z,13.90
2018-04-30T14:22:27.412Z,14.20
2018-04-30T14:24:28.423Z,14.10
2018-04-30T14:26:29.408Z,14.60
2018-04-30T14:28:30.955Z,14.40
2018-04-30T14:30:32.303Z,14.90
2018-04-30T14:32:33.335Z,14.90
2018-04-30T14:34:34.765Z,15.70
2018-04-30T14:36:35.762Z,15.70
2018-04-30T14:38:36.782Z,16.60
2018-04-30T14:40:37.799Z,18.00
2018-04-30T14:42:38.782Z,17.70
2018-04-30T14:44:39.846Z,18.10
2018-04-30T14:46:40.903Z,17.70
2018-04-30T14:48:41.911Z,17.10
2018-04-30T14:50:42.888Z,15.90
2018-04-30T14:52:43.860Z,15.30
2018-04-30T14:54:44.889Z,15.10
2018-04-30T14:56:45.924Z,15.40
2018-04-30T14:58:46.895Z,16.30
2018-04-30T15:00:48.278Z,17.00
2018-04-30T15:02:49.265Z,17.00
2018-04-30T15:04:50.303Z,17.20
2018-04-30T15:06:51.731Z,16.60
2018-04-30T15:08:53.035Z,16.30
2018-04-30T15:10:54.135Z,16.30
2018-04-30T15:12:55.563Z,16.10
2018-04-30T15:14:56.591Z,16.10
2018-04-30T15:16:57.610Z,16.00
2018-04-30T15:18:58.632Z,15.90
2018-04-30T15:20:59.600Z,15.80
2018-04-30T15:23:00.579Z,15.70
2018-04-30T15:25:01.559Z,15.70
2018-04-30T15:27:02.567Z,15.60
2018-04-30T15:29:03.654Z,15.60
2018-04-30T15:31:05.124Z,15.90
2018-04-30T15:33:06.369Z,15.90
2018-04-30T15:35:07.404Z,16.10
2018-04-30T15:37:08.543Z,16.10
2018-04-30T15:39:09.718Z,16.20
2018-04-30T15:41:10.749Z,16.20
2018-04-30T15:43:11.713Z,16.10
2018-04-30T15:45:13.603Z,16.20
2018-04-30T15:47:15.012Z,16.10
2018-04-30T15:49:16.002Z,16.10
2018-04-30T15:51:17.026Z,16.00
2018-04-30T15:53:18.060Z,16.10
2018-04-30T15:55:19.078Z,16.00
2018-04-30T15:57:20.699Z,16.00
2018-04-30T15:59:21.726Z,16.00
2018-04-30T16:01:22.693Z,16.00
2018-04-30T16:03:24.032Z,15.90
2018-04-30T16:05:24.995Z,15.90
2018-04-30T16:07:25.988Z,16.00
2018-04-30T16:09:27.055Z,16.00
2018-04-30T16:11:28.396Z,15.90
2018-04-30T16:13:29.794Z,15.90
2018-04-30T16:15:30.863Z,15.90
2018-04-30T16:17:47.775Z,15.90
2018-04-30T16:19:48.912Z,15.90
2018-04-30T16:21:50.255Z,15.80
2018-04-30T16:23:51.826Z,15.90
2018-04-30T16:25:52.979Z,15.90
2018-04-30T16:27:53.991Z,15.80
2018-04-30T16:29:55.417Z,15.80
2018-04-30T16:31:56.454Z,15.80
2018-04-30T16:33:57.469Z,15.90
2018-04-30T16:35:58.709Z,15.90
2018-04-30T16:37:59.754Z,16.00
2018-04-30T16:40:00.821Z,16.10
2018-04-30T16:42:01.832Z,16.10
2018-04-30T16:44:02.798Z,16.10
2018-04-30T16:46:03.806Z,16.10
2018-04-30T16:48:04.754Z,16.00
2018-04-30T16:50:06.063Z,16.00
2018-04-30T16:52:07.039Z,16.00
2018-04-30T16:54:08.830Z,16.00
2018-04-30T16:56:09.943Z,16.00
2018-04-30T16:58:10.931Z,16.10
2018-04-30T17:00:11.900Z,16.00
2018-04-30T17:02:13.247Z,16.00
2018-04-30T17:04:14.661Z,16.00
2018-04-30T17:06:15.624Z,16.00
2018-04-30T17:08:16.965Z,16.00
2018-04-30T17:10:18.631Z,16.00
2018-04-30T17:12:20.102Z,16.00
2018-04-30T17:14:21.207Z,15.90
2018-04-30T17:16:22.179Z,15.90
2018-04-30T17:18:23.153Z,15.90
2018-04-30T17:20:27.564Z,15.90
2018-04-30T17:22:28.928Z,15.80
2018-04-30T17:24:30.324Z,15.70
2018-04-30T17:26:31.356Z,15.80
2018-04-30T17:28:32.309Z,15.70
2018-04-30T17:30:33.450Z,15.70
2018-04-30T17:32:34.604Z,15.70
2018-04-30T17:34:35.588Z,15.70
2018-04-30T17:36:36.590Z,15.70
2018-04-30T17:38:37.917Z,15.70
2018-04-30T17:40:39.255Z,15.60
2018-04-30T17:42:40.426Z,15.60
2018-04-30T17:44:41.518Z,15.60
2018-04-30T17:46:42.465Z,15.60
2018-04-30T17:48:43.435Z,15.60
2018-04-30T17:50:44.595Z,15.60
2018-04-30T17:52:45.612Z,15.60
2018-04-30T17:54:46.583Z,15.60
2018-04-30T17:56:47.552Z,15.60
2018-04-30T17:58:48.911Z,15.50
2018-04-30T18:00:49.842Z,15.50
2018-04-30T18:02:51.558Z,15.50
2018-04-30T18:04:52.512Z,15.50
2018-04-30T18:06:53.917Z,15.50
2018-04-30T18:08:55.074Z,15.50
2018-04-30T18:10:56.043Z,15.50
2018-04-30T18:12:57.371Z,15.50
2018-04-30T18:14:58.543Z,15.50
2018-04-30T18:16:59.534Z,15.40
2018-04-30T18:19:00.564Z,15.40
2018-04-30T18:21:01.794Z,15.40
2018-04-30T18:23:03.231Z,15.40
2018-04-30T18:25:04.174Z,15.40
2018-04-30T18:27:05.426Z,15.40
2018-04-30T18:29:06.423Z,15.40
2018-04-30T18:31:07.374Z,15.40
2018-04-30T18:33:08.344Z,15.40
2018-04-30T18:35:09.308Z,15.30
2018-04-30T18:37:10.282Z,15.30
2018-04-30T18:39:11.634Z,15.30
2018-04-30T18:41:12.611Z,15.30
2018-04-30T18:43:14.396Z,15.20
2018-04-30T18:45:15.356Z,15.20
2018-04-30T18:47:16.302Z,15.20
2018-04-30T18:49:17.759Z,15.20
2018-04-30T18:51:18.739Z,15.10
2018-04-30T18:53:19.740Z,15.10
2018-04-30T18:55:21.178Z,15.10
2018-04-30T18:57:22.548Z,15.10
2018-04-30T18:59:23.657Z,15.10
2018-04-30T19:01:24.918Z,15.10
2018-04-30T19:03:26.262Z,15.00
2018-04-30T19:05:27.251Z,15.00
2018-04-30T19:07:28.651Z,15.00
2018-04-30T19:09:29.614Z,15.00
2018-04-30T19:11:30.670Z,14.90
2018-04-30T19:13:31.678Z,14.90
2018-04-30T19:15:32.639Z,14.90
2018-04-30T19:17:33.844Z,14.80
2018-04-30T19:19:35.123Z,14.80
2018-04-30T19:21:36.075Z,14.70
2018-04-30T19:23:37.040Z,14.70
2018-04-30T19:25:38.004Z,14.60
2018-04-30T19:27:38.983Z,14.60
2018-04-30T19:29:39.940Z,14.50
2018-04-30T19:31:40.961Z,14.50
2018-04-30T19:33:41.933Z,14.50
2018-04-30T19:35:42.940Z,14.50
2018-04-30T19:37:44.446Z,14.40
2018-04-30T19:39:45.641Z,14.40
2018-04-30T19:41:46.631Z,14.40
2018-04-30T19:43:47.604Z,14.40
2018-04-30T19:45:48.575Z,14.40
2018-04-30T19:47:49.544Z,14.40
2018-04-30T19:49:50.496Z,14.40
2018-04-30T19:51:51.946Z,14.30
2018-04-30T19:53:53.264Z,14.30
2018-04-30T19:55:54.647Z,14.30
2018-04-30T19:57:55.689Z,14.20
2018-04-30T19:59:56.646Z,14.20
2018-04-30T20:01:57.624Z,14.20
2018-04-30T20:03:58.947Z,14.10
2018-04-30T20:05:59.935Z,14.10
2018-04-30T20:08:01.168Z,14.00
2018-04-30T20:10:02.160Z,13.90
2018-04-30T20:12:03.131Z,13.90
2018-04-30T20:14:04.487Z,13.90
2018-04-30T20:16:05.431Z,13.90
2018-04-30T20:18:07.919Z,13.80
2018-04-30T20:20:08.916Z,13.80
2018-04-30T20:22:09.904Z,13.70
2018-04-30T20:24:10.863Z,13.70
2018-04-30T20:26:12.227Z,13.60
2018-04-30T20:28:14.919Z,13.60
2018-04-30T20:30:16.015Z,13.60
2018-04-30T20:32:19.147Z,13.60
2018-04-30T20:34:20.149Z,13.60
2018-04-30T20:36:21.513Z,13.50
2018-04-30T20:38:22.534Z,13.50
2018-04-30T20:40:23.519Z,13.50
2018-04-30T20:42:24.487Z,13.50
2018-04-30T20:44:26.710Z,13.40
2018-04-30T20:46:27.690Z,13.40
2018-04-30T20:48:29.006Z,13.30
2018-04-30T20:50:30.036Z,13.30
2018-04-30T20:52:30.905Z,13.30
2018-04-30T20:54:32.258Z,13.30
2018-04-30T20:56:33.190Z,13.30
2018-04-30T20:58:34.528Z,13.20
2018-04-30T21:00:35.917Z,13.30
2018-04-30T21:02:36.874Z,13.30
2018-04-30T21:04:37.826Z,13.20
2018-04-30T21:06:39.250Z,13.20
2018-04-30T21:08:52.650Z,13.20
2018-04-30T21:10:53.597Z,13.20
2018-04-30T21:12:54.701Z,13.20
2018-04-30T21:14:55.689Z,13.10
2018-04-30T21:17:04.010Z,13.10
2018-04-30T21:19:04.958Z,13.10
2018-04-30T21:21:06.342Z,13.10
2018-04-30T21:23:07.280Z,13.10
2018-04-30T21:25:08.272Z,13.10
2018-04-30T21:27:09.891Z,13.00
2018-04-30T21:29:10.847Z,13.00
2018-04-30T21:31:12.179Z,12.90
2018-04-30T21:33:13.126Z,12.90
2018-04-30T21:35:14.450Z,13.00
2018-04-30T21:37:15.403Z,13.00
2018-04-30T21:39:16.733Z,12.90
2018-04-30T21:41:18.084Z,12.90
2018-04-30T21:43:19.423Z,12.70
2018-04-30T21:45:20.373Z,12.80
2018-04-30T21:47:21.830Z,12.50
2018-04-30T21:49:22.787Z,12.50
2018-04-30T21:51:23.758Z,12.40
2018-04-30T21:53:24.706Z,12.40
2018-04-30T21:55:26.577Z,12.20
2018-04-30T21:57:27.555Z,12.20
2018-04-30T21:59:28.497Z,12.10
2018-04-30T22:01:29.846Z,12.10
2018-04-30T22:03:31.222Z,12.10
2018-04-30T22:05:32.543Z,12.10
2018-04-30T22:07:33.505Z,12.10
2018-04-30T22:09:34.847Z,12.10
2018-04-30T22:11:36.170Z,12.10
2018-04-30T22:13:37.219Z,12.10
2018-04-30T22:15:38.554Z,12.20
2018-04-30T22:17:39.686Z,12.20
2018-04-30T22:19:40.638Z,12.30
2018-04-30T22:21:41.945Z,12.30
2018-04-30T22:23:42.938Z,12.30
2018-04-30T22:25:43.889Z,12.30
2018-04-30T22:27:44.825Z,12.30
2018-04-30T22:29:46.054Z,12.30
2018-04-30T22:31:47.205Z,12.20
2018-04-30T22:33:48.189Z,12.20
2018-04-30T22:35:49.510Z,12.20
2018-04-30T22:37:50.458Z,12.20
2018-04-30T22:39:51.467Z,12.20
2018-04-30T22:41:52.431Z,12.20
2018-04-30T22:43:53.369Z,12.10
2018-04-30T22:45:54.450Z,12.20
2018-04-30T22:47:55.398Z,12.20
2018-04-30T22:49:56.358Z,12.20
2018-04-30T22:51:57.302Z,12.10
2018-04-30T22:53:58.237Z,12.10
2018-04-30T22:55:59.165Z,12.10
2018-04-30T22:58:00.134Z,12.10
2018-04-30T23:00:01.103Z,12.10
2018-04-30T23:02:02.043Z,12.10
2018-04-30T23:04:02.995Z,12.10
2018-04-30T23:06:03.977Z,12.00
2018-04-30T23:08:04.910Z,12.00
2018-04-30T23:10:05.889Z,12.00
2018-04-30T23:12:06.842Z,12.00
2018-04-30T23:14:07.799Z,11.80
2018-04-30T23:16:09.121Z,11.70
2018-04-30T23:18:10.069Z,11.70
2018-04-30T23:20:11.395Z,11.70
2018-04-30T23:22:13.279Z,11.70
2018-04-30T23:24:14.218Z,11.60
2018-04-30T23:26:15.181Z,11.60
2018-04-30T23:28:16.146Z,11.60
2018-04-30T23:30:17.110Z,11.70
2018-04-30T23:32:18.598Z,11.60
2018-04-30T23:34:19.545Z,11.60
2018-04-30T23:36:20.494Z,11.60
2018-04-30T23:38:21.472Z,11.60
2018-04-30T23:40:22.414Z,11.60
2018-04-30T23:42:23.357Z,11.60
2018-04-30T23:44:24.315Z,11.50
2018-04-30T23:46:25.251Z,11.50
2018-04-30T23:48:26.510Z,11.60
2018-04-30T23:50:27.450Z,11.60
2018-04-30T23:52:28.393Z,11.60
2018-04-30T23:54:29.722Z,11.50
2018-04-30T23:56:30.680Z,11.50
2018-04-30T23:58:32.104Z,11.60
